Time;durP1;ratioP1;P1;durP2;ratioP2;P2;SDS_P1;SDS_P2;PMS_P1;PMS_P2;Temp;Humidity;BMP_temperature;BMP_pressure;BME280_temperature;BME280_humidity;BME280_pressure;Samples;Min_cycle;Max_cycle;Signal;HPM_P1;HPM_P2
2021/08/17 00:01:54;;;;;;;8.98;3.53;;;;;;;18.89;50.40;92986.72;5126703;27;20065;-79
2021/08/17 00:04:21;;;;;;;7.68;3.83;;;;;;;18.70;50.57;92969.84;5126851;27;20058;-79
2021/08/17 00:06:47;;;;;;;7.00;3.10;;;;;;;18.85;50.81;92998.69;5126498;27;20495;-79
2021/08/17 00:09:15;;;;;;;4.40;3.30;;;;;;;18.78;51.15;92997.16;5126658;27;20074;-79
2021/08/17 00:11:42;;;;;;;7.05;3.25;;;;;;;18.65;51.08;92980.28;5105935;28;20052;-79
2021/08/17 00:14:10;;;;;;;8.43;3.80;;;;;;;18.74;51.17;92998.72;5106130;28;20055;-79
2021/08/17 00:16:37;;;;;;;5.85;3.28;;;;;;;18.75;51.08;92994.31;5105894;28;20054;-79
2021/08/17 00:19:04;;;;;;;6.13;3.05;;;;;;;18.59;50.81;92989.16;5105737;28;20514;-79
2021/08/17 00:21:31;;;;;;;7.13;3.60;;;;;;;18.72;50.97;92998.22;5103950;28;20105;-79
2021/08/17 00:23:58;;;;;;;5.88;3.13;;;;;;;18.61;50.84;92988.88;5109086;28;20145;-80
2021/08/17 00:26:25;;;;;;;6.82;2.95;;;;;;;18.70;50.88;93000.28;5112344;28;20055;-79
2021/08/17 00:28:51;;;;;;;5.07;3.50;;;;;;;18.68;50.80;92995.38;5112630;28;20134;-80
2021/08/17 00:31:20;;;;;;;7.47;3.17;;;;;;;18.67;51.00;92988.63;5112546;28;20416;-79
2021/08/17 00:33:46;;;;;;;5.63;3.45;;;;;;;18.59;50.98;92991.75;5112324;28;20113;-79
2021/08/17 00:36:13;;;;;;;6.15;3.17;;;;;;;18.52;50.96;92983.47;5112161;28;20780;-80
2021/08/17 00:38:41;;;;;;;5.20;3.42;;;;;;;18.61;50.66;92989.66;5112480;28;20040;-79
2021/08/17 00:41:08;;;;;;;7.68;2.95;;;;;;;18.40;51.29;92962.94;5112082;28;20538;-79
2021/08/17 00:43:35;;;;;;;5.15;3.30;;;;;;;18.58;51.14;92984.19;5112251;28;20046;-79
2021/08/17 00:46:05;;;;;;;7.43;3.45;;;;;;;18.57;51.07;92978.25;5111982;28;20055;-79
2021/08/17 00:48:34;;;;;;;7.15;2.92;;;;;;;18.60;51.11;92977.69;5109410;28;20583;-79
2021/08/17 00:51:00;;;;;;;4.60;3.08;;;;;;;18.58;51.00;92982.41;5111398;28;20090;-79
2021/08/17 00:53:27;;;;;;;6.65;3.58;;;;;;;17.95;51.13;92884.78;5111876;28;20039;-79
2021/08/17 00:55:55;;;;;;;6.15;3.25;;;;;;;18.59;50.68;92983.94;5110954;28;20043;-78
2021/08/17 00:58:22;;;;;;;5.88;3.13;;;;;;;18.60;50.53;92980.28;5111147;28;20046;-78
2021/08/17 01:00:49;;;;;;;7.00;3.15;;;;;;;18.47;50.54;92971.22;5111045;28;20054;-79
2021/08/17 01:03:15;;;;;;;5.32;3.17;;;;;;;18.48;50.87;92980.59;5111549;28;20048;-79
2021/08/17 01:05:44;;;;;;;6.15;3.65;;;;;;;18.35;51.01;92979.34;5111639;28;20059;-78
2021/08/17 01:08:11;;;;;;;9.07;4.93;;;;;;;18.26;51.50;92983.50;5111938;28;20048;-79
2021/08/17 01:10:40;;;;;;;6.82;3.20;;;;;;;18.06;51.75;92982.50;5111679;28;20122;-79
2021/08/17 01:13:07;;;;;;;4.40;2.92;;;;;;;17.97;51.75;92973.63;5111508;27;20047;-80
2021/08/17 01:15:34;;;;;;;5.82;2.95;;;;;;;18.03;52.26;92983.00;5111391;28;20159;-79
2021/08/17 01:18:01;;;;;;;6.80;3.33;;;;;;;17.99;52.25;92980.13;5111718;28;20055;-79
2021/08/17 01:20:28;;;;;;;8.20;3.58;;;;;;;18.05;52.20;92985.34;5111673;28;20407;-79
2021/08/17 01:22:56;;;;;;;5.80;3.10;;;;;;;18.05;52.08;92974.94;5110504;27;20047;-79
2021/08/17 01:25:24;;;;;;;7.45;3.30;;;;;;;18.03;52.08;92975.97;5111106;28;20066;-79
2021/08/17 01:27:52;;;;;;;7.60;3.35;;;;;;;17.97;52.41;92984.78;5108660;28;20043;-79
2021/08/17 01:30:19;;;;;;;5.88;3.25;;;;;;;17.88;52.48;92989.75;5111775;28;20407;-79
2021/08/17 01:32:47;;;;;;;11.57;3.90;;;;;;;17.68;53.16;92976.78;5111044;28;20051;-79
2021/08/17 01:35:14;;;;;;;6.93;3.00;;;;;;;17.76;53.29;92986.63;5109416;28;20047;-79
2021/08/17 01:37:41;;;;;;;5.63;3.55;;;;;;;17.68;53.91;92987.91;5111442;27;20051;-79
2021/08/17 01:40:10;;;;;;;7.93;3.67;;;;;;;17.75;53.53;92982.47;5110513;28;20043;-79
2021/08/17 01:42:42;;;;;;;12.55;4.07;;;;;;;17.83;53.39;92994.16;5110614;28;20061;-79
2021/08/17 01:45:11;;;;;;;7.22;3.78;;;;;;;17.85;53.16;92987.69;5110939;28;20104;-79
2021/08/17 01:47:38;;;;;;;5.25;3.65;;;;;;;17.81;53.46;92999.63;5110959;28;20046;-79
2021/08/17 01:50:06;;;;;;;7.40;3.10;;;;;;;17.75;53.50;92985.06;5110490;28;20134;-79
2021/08/17 01:52:33;;;;;;;6.47;3.38;;;;;;;17.80;53.47;93007.66;5111068;28;20076;-79
2021/08/17 01:55:00;;;;;;;5.88;3.53;;;;;;;17.79;53.42;92996.50;5110811;28;20047;-79
2021/08/17 01:57:27;;;;;;;5.10;3.60;;;;;;;17.79;53.32;92991.31;5102493;28;20458;-79
2021/08/17 01:59:54;;;;;;;6.50;3.58;;;;;;;17.68;53.09;92998.31;5090539;28;20052;-79
2021/08/17 02:02:22;;;;;;;4.93;3.33;;;;;;;17.63;53.87;93001.69;5095460;28;20059;-79
2021/08/17 02:04:49;;;;;;;5.03;3.35;;;;;;;17.41;53.77;92962.19;5090259;28;20044;-79
2021/08/17 02:07:16;;;;;;;6.03;3.58;;;;;;;17.65;53.80;92988.47;5090252;28;20040;-79
2021/08/17 02:09:42;;;;;;;5.90;3.78;;;;;;;17.71;53.85;92978.84;5094146;28;20051;-79
2021/08/17 02:12:10;;;;;;;5.95;3.55;;;;;;;17.54;53.82;92953.13;5110513;28;20056;-78
2021/08/17 02:14:37;;;;;;;5.53;3.60;;;;;;;17.63;54.29;92975.72;5110445;28;20044;-79
2021/08/17 02:17:04;;;;;;;5.93;3.55;;;;;;;17.62;54.27;92981.97;5110721;28;20126;-79
2021/08/17 02:19:33;;;;;;;7.30;3.92;;;;;;;17.69;54.17;92988.72;5110583;28;20060;-78
2021/08/17 02:21:59;;;;;;;7.88;4.00;;;;;;;17.69;54.29;92984.28;5110395;28;20051;-78
2021/08/17 02:24:26;;;;;;;8.70;3.70;;;;;;;17.62;54.62;92981.16;5110131;28;20056;-78
2021/08/17 02:26:53;;;;;;;7.07;3.97;;;;;;;17.60;54.76;92983.25;5110074;28;20113;-78
2021/08/17 02:29:20;;;;;;;6.35;3.80;;;;;;;17.30;55.49;92958.78;5110472;28;20442;-78
2021/08/17 02:31:47;;;;;;;5.65;3.42;;;;;;;17.33;56.23;92979.06;5110281;28;20618;-78
2021/08/17 02:34:14;;;;;;;4.97;3.67;;;;;;;17.27;55.92;92987.88;5109880;28;20059;-78
2021/08/17 02:36:42;;;;;;;5.95;3.47;;;;;;;17.11;56.28;92972.25;5110148;28;20058;-80
2021/08/17 02:39:09;;;;;;;6.00;3.80;;;;;;;17.11;56.67;92974.09;5110137;28;20114;-79
2021/08/17 02:41:36;;;;;;;5.65;3.60;;;;;;;17.14;56.32;92981.34;5109206;28;20043;-79
2021/08/17 02:44:03;;;;;;;5.25;3.83;;;;;;;17.15;56.26;92969.94;5107106;28;20493;-80
2021/08/17 02:46:30;;;;;;;9.07;4.07;;;;;;;17.13;56.55;92966.81;5109879;28;20040;-79
2021/08/17 02:48:57;;;;;;;8.95;4.15;;;;;;;17.04;56.66;92954.34;5109944;28;20044;-79
2021/08/17 02:51:24;;;;;;;7.97;3.72;;;;;;;17.18;56.63;92965.00;5109897;28;20047;-79
2021/08/17 02:53:52;;;;;;;6.55;4.80;;;;;;;17.17;57.06;92962.69;5110036;28;20411;-79
2021/08/17 02:56:19;;;;;;;9.52;4.05;;;;;;;17.12;56.72;92963.44;5110103;28;20051;-78
2021/08/17 02:58:46;;;;;;;9.40;4.13;;;;;;;16.92;57.56;92951.97;5109667;28;20553;-78
2021/08/17 03:01:13;;;;;;;7.20;4.38;;;;;;;17.07;57.59;92973.81;5109669;28;20471;-78
2021/08/17 03:03:39;;;;;;;10.35;4.63;;;;;;;16.96;57.74;92967.78;5109629;28;20089;-78
2021/08/17 03:06:06;;;;;;;6.15;4.07;;;;;;;17.00;57.98;92968.84;5109892;28;20047;-78
2021/08/17 03:08:33;;;;;;;8.82;4.18;;;;;;;16.78;58.45;92963.84;5109480;28;20056;-78
2021/08/17 03:11:04;;;;;;;10.77;4.47;;;;;;;16.73;59.46;92963.81;5109507;28;20058;-78
2021/08/17 03:13:31;;;;;;;7.55;4.10;;;;;;;16.67;59.39;92968.97;5109519;28;20043;-78
2021/08/17 03:15:58;;;;;;;10.82;4.70;;;;;;;16.53;59.36;92966.06;5109311;28;20585;-79
2021/08/17 03:18:25;;;;;;;11.13;3.95;;;;;;;16.45;59.47;92966.56;5109693;28;20040;-80
2021/08/17 03:20:53;;;;;;;7.03;4.40;;;;;;;16.36;59.20;92968.84;5109447;28;20500;-79
2021/08/17 03:23:20;;;;;;;9.40;3.97;;;;;;;16.25;58.90;92964.63;5109701;28;20047;-79
2021/08/17 03:25:47;;;;;;;8.48;3.78;;;;;;;16.30;59.29;92968.03;5109660;28;20047;-79
2021/08/17 03:28:15;;;;;;;7.13;4.60;;;;;;;16.45;58.18;92963.97;5109529;28;20104;-78
2021/08/17 03:30:42;;;;;;;9.65;4.65;;;;;;;16.60;58.24;92962.47;5109319;28;20058;-78
2021/08/17 03:33:09;;;;;;;10.60;3.67;;;;;;;16.74;57.71;92971.34;5109229;28;20055;-78
2021/08/17 03:35:35;;;;;;;12.98;4.00;;;;;;;16.87;57.51;92967.50;5109172;28;20043;-79
2021/08/17 03:38:02;;;;;;;14.75;4.32;;;;;;;16.90;57.78;92971.41;5109277;28;20096;-79
2021/08/17 03:40:29;;;;;;;9.27;4.32;;;;;;;16.90;57.80;92963.63;5109634;28;20470;-79
2021/08/17 03:42:56;;;;;;;12.15;4.10;;;;;;;16.87;57.80;92964.13;5109072;28;20040;-78
2021/08/17 03:45:25;;;;;;;16.90;4.50;;;;;;;16.94;58.14;92962.09;5109126;28;20039;-78
2021/08/17 03:47:52;;;;;;;9.18;4.43;;;;;;;16.79;58.48;92955.81;5109144;28;20499;-79
2021/08/17 03:50:20;;;;;;;10.50;4.43;;;;;;;16.90;58.36;92966.97;5109494;28;20411;-78
2021/08/17 03:52:47;;;;;;;9.13;4.25;;;;;;;16.88;58.51;92960.47;5109009;28;20056;-78
2021/08/17 03:55:14;;;;;;;12.15;4.43;;;;;;;16.90;58.49;92959.19;5109459;28;20048;-79
2021/08/17 03:57:41;;;;;;;12.02;4.45;;;;;;;16.83;58.33;92941.28;5111529;28;20056;-78
2021/08/17 04:00:11;;;;;;;12.48;4.50;;;;;;;16.88;58.58;92950.09;5113064;28;20055;-78
2021/08/17 04:02:41;;;;;;;11.65;4.53;;;;;;;16.89;58.81;92962.06;5092598;28;20048;-78
2021/08/17 04:05:09;;;;;;;8.82;4.22;;;;;;;16.89;58.92;92959.47;5092824;28;20404;-78
2021/08/17 04:07:35;;;;;;;15.63;6.05;;;;;;;16.68;58.96;92923.09;5092568;28;20052;-79
2021/08/17 04:10:02;;;;;;;17.15;4.82;;;;;;;16.91;58.98;92960.00;5098835;28;20488;-79
2021/08/17 04:12:29;;;;;;;12.13;5.03;;;;;;;16.92;58.82;92961.53;5112894;28;20058;-78
2021/08/17 04:14:56;;;;;;;16.08;4.95;;;;;;;17.00;58.86;92957.69;5112719;28;20040;-78
2021/08/17 04:17:23;;;;;;;18.40;5.70;;;;;;;17.01;58.59;92969.59;5113032;28;20043;-78
2021/08/17 04:19:51;;;;;;;12.10;4.88;;;;;;;17.05;59.04;92958.50;5112625;28;20093;-78
2021/08/17 04:22:18;;;;;;;13.82;5.15;;;;;;;17.17;57.98;92962.69;5112889;28;20062;-78
2021/08/17 04:24:45;;;;;;;12.32;3.85;;;;;;;17.18;58.28;92959.81;5111951;28;20074;-78
2021/08/17 04:27:13;;;;;;;10.23;4.30;;;;;;;17.22;58.59;92966.06;5112431;28;20089;-78
2021/08/17 04:29:40;;;;;;;15.75;5.35;;;;;;;17.36;58.25;92961.16;5112767;28;20056;-78
2021/08/17 04:32:07;;;;;;;23.20;5.57;;;;;;;17.39;58.48;92953.91;5112642;28;20050;-78
2021/08/17 04:34:34;;;;;;;25.00;5.32;;;;;;;17.50;57.77;92956.22;5112452;27;20449;-78
2021/08/17 04:37:03;;;;;;;13.77;4.68;;;;;;;17.58;57.37;92965.31;5112165;28;20524;-79
2021/08/17 04:39:30;;;;;;;14.43;5.25;;;;;;;17.57;57.83;92957.78;5112254;28;20048;-79
2021/08/17 04:41:57;;;;;;;11.48;4.50;;;;;;;17.66;57.44;92966.63;5112419;28;20070;-79
2021/08/17 04:44:24;;;;;;;6.78;4.93;;;;;;;17.45;58.48;92966.59;5112506;28;20047;-79
2021/08/17 04:46:51;;;;;;;12.60;5.13;;;;;;;17.29;58.96;92947.66;5112057;28;20052;-79
2021/08/17 04:49:18;;;;;;;10.55;4.88;;;;;;;17.42;58.85;92974.13;5112000;28;20043;-80
2021/08/17 04:51:45;;;;;;;12.50;5.68;;;;;;;17.31;59.12;92973.34;5111980;28;20070;-79
2021/08/17 04:54:13;;;;;;;13.85;5.70;;;;;;;17.28;59.17;92966.06;5112322;28;20055;-78
2021/08/17 04:56:40;;;;;;;8.80;5.03;;;;;;;17.18;59.80;92949.44;5112264;28;20051;-77
2021/08/17 04:59:07;;;;;;;10.13;4.88;;;;;;;17.33;59.25;92973.88;5112518;28;20052;-77
2021/08/17 05:01:33;;;;;;;11.88;5.72;;;;;;;17.33;58.49;92947.91;5111958;28;20097;-78
2021/08/17 05:04:02;;;;;;;10.88;4.63;;;;;;;17.54;58.52;92955.72;5111785;28;20043;-79
2021/08/17 05:06:29;;;;;;;9.60;4.82;;;;;;;17.75;57.75;92966.88;5111958;28;20474;-79
2021/08/17 05:08:56;;;;;;;8.65;5.63;;;;;;;17.90;57.62;92963.50;5110981;28;20051;-80
2021/08/17 05:11:24;;;;;;;15.30;5.50;;;;;;;18.03;57.05;92967.41;5111238;28;20054;-78
2021/08/17 05:13:51;;;;;;;14.27;5.72;;;;;;;18.21;56.38;92966.09;5111461;28;20495;-78
2021/08/17 05:16:18;;;;;;;11.20;5.55;;;;;;;18.40;56.37;92970.72;5111874;28;20044;-78
2021/08/17 05:18:45;;;;;;;15.10;5.75;;;;;;;18.46;56.46;92969.69;5092932;28;20055;-78
2021/08/17 05:21:12;;;;;;;19.17;6.00;;;;;;;18.56;55.53;92972.25;5090335;28;20142;-78
2021/08/17 05:23:39;;;;;;;8.38;5.35;;;;;;;18.39;55.27;92945.78;5102747;28;20519;-80
2021/08/17 05:26:07;;;;;;;12.57;5.68;;;;;;;18.61;54.83;92970.69;5110359;28;20044;-80
2021/08/17 05:28:35;;;;;;;13.98;6.03;;;;;;;18.74;54.53;92975.31;5110211;28;20519;-80
2021/08/17 05:31:02;;;;;;;13.82;6.05;;;;;;;18.82;54.54;92977.38;5110894;27;20044;-81
2021/08/17 05:33:29;;;;;;;12.73;5.60;;;;;;;18.68;55.54;92974.56;5110507;28;20051;-80
2021/08/17 05:35:56;;;;;;;15.38;6.00;;;;;;;18.86;54.45;92971.63;5109946;28;20051;-78
2021/08/17 05:38:22;;;;;;;17.63;6.35;;;;;;;19.08;53.53;92977.25;5110357;28;20052;-78
2021/08/17 05:40:49;;;;;;;16.38;6.75;;;;;;;18.87;52.76;92960.16;5110835;28;20039;-78
2021/08/17 05:43:16;;;;;;;13.70;5.97;;;;;;;18.90;53.67;92977.84;5110692;28;20116;-78
2021/08/17 05:45:45;;;;;;;10.50;5.60;;;;;;;18.95;52.61;92977.84;5110324;28;20088;-81
2021/08/17 05:48:11;;;;;;;15.82;5.45;;;;;;;19.19;52.23;92983.22;5110659;28;20087;-79
2021/08/17 05:50:38;;;;;;;15.38;5.75;;;;;;;19.35;50.64;92977.91;5111089;28;20047;-78
2021/08/17 05:53:05;;;;;;;12.65;6.13;;;;;;;19.52;49.44;92979.38;5109594;28;20055;-83
2021/08/17 05:55:32;;;;;;;14.70;6.25;;;;;;;19.65;49.11;92970.94;5110668;28;20055;-82
2021/08/17 05:58:02;;;;;;;24.00;7.75;;;;;;;19.81;49.57;92957.81;5107634;28;20138;-82
2021/08/17 06:00:29;;;;;;;20.65;6.22;;;;;;;20.04;49.41;92943.28;5110040;28;20409;-82
2021/08/17 06:02:57;;;;;;;15.13;6.60;;;;;;;20.55;47.99;92967.31;5110113;28;20096;-81
2021/08/17 06:05:25;;;;;;;18.02;6.75;;;;;;;20.87;47.22;92980.81;5109920;28;20039;-82
2021/08/17 06:07:52;;;;;;;17.27;7.53;;;;;;;20.62;45.93;92893.88;5110276;28;20132;-81
2021/08/17 06:10:20;;;;;;;16.85;6.38;;;;;;;21.48;45.16;92976.59;5109981;28;20135;-82
2021/08/17 06:12:47;;;;;;;19.65;7.18;;;;;;;21.73;44.04;92966.88;5109739;28;20048;-82
2021/08/17 06:15:15;;;;;;;22.00;7.25;;;;;;;22.11;44.14;92966.00;5109830;28;20046;-81
2021/08/17 06:17:43;;;;;;;20.30;8.40;;;;;;;22.35;43.00;92967.66;5110058;28;20068;-82
2021/08/17 06:20:12;;;;;;;19.95;8.40;;;;;;;22.28;42.52;92948.97;5109214;28;20051;-81
2021/08/17 06:22:39;;;;;;;25.23;8.73;;;;;;;22.72;42.63;92967.03;5107115;28;20055;-81
2021/08/17 06:25:08;;;;;;;18.52;8.82;;;;;;;22.98;41.87;92951.59;5109835;28;20047;-81
2021/08/17 06:27:36;;;;;;;19.05;7.78;;;;;;;23.47;41.22;92964.97;5108033;28;20043;-81
2021/08/17 06:30:08;;;;;;;12.98;6.07;;;;;;;23.62;40.06;92945.50;5106499;28;20048;-82
2021/08/17 06:32:40;;;;;;;12.75;6.78;;;;;;;23.78;39.54;92941.75;5108230;28;20054;-81
2021/08/17 06:35:08;;;;;;;14.20;6.63;;;;;;;24.06;39.05;92957.34;5110012;28;20438;-82
2021/08/17 06:37:49;;;;;;;14.25;6.88;;;;;;;23.87;39.58;92939.94;5108816;28;20051;-82
2021/08/17 06:40:16;;;;;;;18.88;6.65;;;;;;;24.17;39.17;92945.56;5110110;28;20134;-82
2021/08/17 06:42:43;;;;;;;11.27;6.10;;;;;;;24.52;38.86;92948.31;5111654;28;20043;-81
2021/08/17 06:45:11;;;;;;;28.02;7.60;;;;;;;25.04;38.63;92941.66;5110176;28;20496;-81
2021/08/17 06:47:53;;;;;;;23.80;7.57;;;;;;;25.53;37.94;92942.63;5110437;28;20062;-82
2021/08/17 06:50:21;;;;;;;17.75;7.13;;;;;;;25.97;37.16;92932.84;5110321;28;20048;-81
2021/08/17 06:52:49;;;;;;;20.98;7.78;;;;;;;26.47;35.35;92935.19;5110410;28;20048;-82
2021/08/17 06:55:17;;;;;;;19.00;8.90;;;;;;;26.85;35.10;92930.97;5109976;28;20047;-82
2021/08/17 06:57:43;;;;;;;27.23;9.02;;;;;;;27.30;34.31;92935.66;5110024;28;20082;-82
2021/08/17 07:00:12;;;;;;;32.78;8.82;;;;;;;27.66;34.83;92928.25;5110341;28;20423;-81
2021/08/17 07:02:39;;;;;;;18.80;8.07;;;;;;;27.86;33.80;92926.66;5109383;27;20051;-82
2021/08/17 07:05:07;;;;;;;18.35;7.70;;;;;;;27.80;33.20;92908.72;5109663;28;20043;-82
2021/08/17 07:07:34;;;;;;;18.05;8.32;;;;;;;27.34;34.12;92928.66;5109428;28;20105;-82
2021/08/17 07:10:02;;;;;;;29.20;9.07;;;;;;;27.54;33.96;92921.03;5109624;28;20058;-82
2021/08/17 07:12:29;;;;;;;24.25;9.65;;;;;;;27.53;34.03;92921.38;5109318;28;20047;-82
2021/08/17 07:14:57;;;;;;;20.08;9.30;;;;;;;27.88;33.97;92924.50;5109432;28;20054;-82
2021/08/17 07:17:23;;;;;;;17.75;7.22;;;;;;;28.23;33.70;92926.00;5109576;28;20044;-82
2021/08/17 07:19:50;;;;;;;22.55;8.18;;;;;;;28.29;33.39;92884.31;5109262;28;20063;-82
2021/08/17 07:22:17;;;;;;;21.77;7.80;;;;;;;28.90;33.36;92921.63;5109349;28;20484;-82
2021/08/17 07:24:44;;;;;;;19.98;7.50;;;;;;;29.28;33.28;92917.03;5109347;28;20050;-82
2021/08/17 07:27:12;;;;;;;16.42;6.70;;;;;;;29.56;32.76;92918.94;5109283;28;20488;-82
2021/08/17 07:29:39;;;;;;;18.20;7.00;;;;;;;29.84;32.83;92900.41;5109264;28;20040;-82
2021/08/17 07:32:06;;;;;;;12.70;6.88;;;;;;;30.34;32.42;92912.59;5109883;28;20048;-82
2021/08/17 07:34:33;;;;;;;21.13;6.80;;;;;;;30.59;31.97;92915.81;5113252;28;20051;-82
2021/08/17 07:37:00;;;;;;;13.63;6.40;;;;;;;30.45;31.94;92857.97;5113682;28;20048;-85
2021/08/17 07:39:27;;;;;;;15.23;5.80;;;;;;;30.73;31.74;92885.47;5113371;28;20130;-84
2021/08/17 07:41:54;;;;;;;14.70;6.38;;;;;;;31.29;31.77;92905.59;5113199;28;20155;-84
2021/08/17 07:44:22;;;;;;;16.48;5.40;;;;;;;31.67;31.86;92916.56;5113150;28;20048;-84
2021/08/17 07:46:49;;;;;;;11.00;5.28;;;;;;;31.89;31.33;92914.34;5113326;28;20048;-83
2021/08/17 07:49:15;;;;;;;21.00;5.65;;;;;;;31.79;31.50;92880.38;5112899;28;20043;-84
2021/08/17 07:51:42;;;;;;;13.90;6.13;;;;;;;32.31;31.19;92918.06;5113176;28;20412;-84
2021/08/17 07:54:09;;;;;;;13.15;5.10;;;;;;;32.35;30.31;92910.16;5112899;28;20063;-85
2021/08/17 07:56:36;;;;;;;27.75;5.78;;;;;;;32.29;30.53;92853.88;5112929;28;20043;-85
2021/08/17 07:59:04;;;;;;;14.18;4.95;;;;;;;32.76;30.24;92910.41;5112877;28;20054;-86
2021/08/17 08:01:32;;;;;;;34.60;5.38;;;;;;;32.92;29.85;92907.56;5113252;28;20101;-84
2021/08/17 08:04:00;;;;;;;12.68;5.35;;;;;;;32.89;30.18;92883.59;5112856;28;20058;-84
2021/08/17 08:06:28;;;;;;;16.13;5.35;;;;;;;32.75;29.41;92858.34;5112657;28;20575;-82
2021/08/17 08:08:54;;;;;;;8.50;5.03;;;;;;;33.00;29.30;92878.47;5112765;28;20080;-83
2021/08/17 08:11:21;;;;;;;12.70;5.00;;;;;;;33.35;29.37;92893.31;5113024;28;20048;-84
2021/08/17 08:13:48;;;;;;;13.13;4.50;;;;;;;33.00;29.59;92817.28;5112711;28;20058;-84
2021/08/17 08:16:15;;;;;;;14.13;4.70;;;;;;;33.52;29.09;92892.03;5112588;28;20044;-84
2021/08/17 08:18:43;;;;;;;10.45;4.70;;;;;;;33.35;29.03;92837.41;5112733;28;20052;-84
2021/08/17 08:21:10;;;;;;;12.07;4.53;;;;;;;33.93;28.70;92890.53;5112566;28;20073;-83
2021/08/17 08:23:37;;;;;;;12.55;4.72;;;;;;;33.89;28.49;92885.16;5112430;28;20044;-82
2021/08/17 08:26:04;;;;;;;12.70;4.90;;;;;;;33.99;28.30;92887.16;5112804;28;20052;-84
2021/08/17 08:28:31;;;;;;;10.98;4.78;;;;;;;33.77;28.80;92848.16;5109458;28;20403;-83
2021/08/17 08:30:58;;;;;;;10.85;4.60;;;;;;;33.74;27.79;92849.66;5110554;28;20411;-84
2021/08/17 08:33:25;;;;;;;15.00;6.07;;;;;;;34.12;28.54;92886.91;5111779;27;20054;-85
2021/08/17 08:35:53;;;;;;;14.88;4.80;;;;;;;34.37;28.01;92891.66;5112634;28;20048;-85
2021/08/17 08:38:20;;;;;;;8.23;5.38;;;;;;;34.28;27.63;92854.66;5112966;28;20054;-86
2021/08/17 08:40:50;;;;;;;7.95;5.20;;;;;;;34.65;27.16;92887.69;5112261;28;20048;-85
2021/08/17 08:43:19;;;;;;;21.98;5.85;;;;;;;34.76;27.70;92874.44;5111688;28;20043;-83
2021/08/17 08:45:46;;;;;;;10.65;4.90;;;;;;;34.67;26.28;92844.66;5112125;28;20051;-85
2021/08/17 08:48:14;;;;;;;15.95;5.80;;;;;;;34.72;26.83;92842.41;5111830;27;20480;-84
2021/08/17 08:50:44;;;;;;;13.55;5.28;;;;;;;35.09;26.62;92875.38;5112123;28;20048;-84
2021/08/17 08:53:13;;;;;;;14.05;5.32;;;;;;;34.90;26.70;92828.41;5111769;28;20062;-84
2021/08/17 08:55:40;;;;;;;13.57;5.03;;;;;;;35.33;26.55;92870.53;5111671;28;20046;-85
2021/08/17 08:58:07;;;;;;;12.77;5.38;;;;;;;35.43;26.02;92855.69;5111665;28;20511;-85
2021/08/17 09:00:34;;;;;;;12.32;5.00;;;;;;;35.55;25.87;92854.59;5112117;28;20479;-83
2021/08/17 09:03:01;;;;;;;16.50;5.10;;;;;;;35.65;25.61;92858.44;5111832;28;20051;-84
2021/08/17 09:05:28;;;;;;;31.90;7.10;;;;;;;35.68;24.93;92847.00;5111822;28;20450;-85
2021/08/17 09:07:56;;;;;;;16.15;4.97;;;;;;;35.29;25.57;92821.69;5112208;28;20091;-84
2021/08/17 09:10:26;;;;;;;9.38;5.10;;;;;;;35.67;25.32;92853.47;5111883;28;20066;-84
2021/08/17 09:12:54;;;;;;;8.50;5.45;;;;;;;35.60;24.26;92835.53;5111778;28;20138;-85
2021/08/17 09:15:23;;;;;;;12.45;4.78;;;;;;;35.84;24.07;92858.09;5111655;28;20074;-85
2021/08/17 09:17:58;;;;;;;6.85;5.03;;;;;;;35.89;24.32;92845.50;5111158;28;20531;-84
2021/08/17 09:20:32;;;;;;;7.63;4.95;;;;;;;35.63;23.57;92802.72;5111111;28;20050;-84
2021/08/17 09:23:18;;;;;;;7.97;5.13;;;;;;;36.17;24.01;92854.69;5111508;28;20047;-84
2021/08/17 09:25:47;;;;;;;10.50;5.32;;;;;;;36.02;24.37;92837.88;5111135;28;20043;-85
2021/08/17 09:28:29;;;;;;;6.20;4.75;;;;;;;36.32;23.82;92850.13;5111030;28;20052;-85
2021/08/17 09:30:57;;;;;;;7.03;4.55;;;;;;;36.40;24.20;92846.28;5110871;28;20503;-85
2021/08/17 09:33:34;;;;;;;9.25;4.88;;;;;;;36.33;24.01;92849.72;5110951;28;20062;-83
2021/08/17 09:36:01;;;;;;;12.60;4.80;;;;;;;36.49;24.13;92849.34;5111145;28;20050;-84
2021/08/17 09:38:32;;;;;;;6.63;4.90;;;;;;;36.54;23.85;92842.84;5111195;28;20043;-84
2021/08/17 09:41:03;;;;;;;9.65;5.40;;;;;;;36.34;23.69;92810.38;5111068;28;20051;-86
2021/08/17 09:43:30;;;;;;;10.65;5.00;;;;;;;36.80;23.49;92848.16;5111276;28;20069;-84
2021/08/17 09:46:09;;;;;;;7.97;5.63;;;;;;;36.72;23.06;92807.28;5110890;28;20047;-85
2021/08/17 09:48:36;;;;;;;8.95;5.60;;;;;;;37.00;23.11;92837.75;5111000;28;20070;-86
2021/08/17 09:51:03;;;;;;;16.60;6.40;;;;;;;37.08;23.13;92838.50;5111035;28;20047;-83
2021/08/17 09:53:30;;;;;;;7.90;5.05;;;;;;;37.16;23.23;92837.38;5111501;28;20050;-84
2021/08/17 09:55:59;;;;;;;10.32;5.55;;;;;;;36.82;22.77;92808.38;5110214;28;20052;-84
2021/08/17 09:58:31;;;;;;;8.82;5.25;;;;;;;36.62;22.72;92766.81;5110626;28;20545;-84
2021/08/17 10:00:59;;;;;;;9.13;5.35;;;;;;;37.30;23.00;92837.28;5110260;28;20044;-85
2021/08/17 10:03:27;;;;;;;10.50;5.57;;;;;;;37.32;21.78;92826.19;5110869;28;20097;-84
2021/08/17 10:05:55;;;;;;;9.75;5.50;;;;;;;36.76;23.23;92789.31;5110715;28;20064;-84
2021/08/17 10:08:23;;;;;;;17.40;5.88;;;;;;;37.39;22.61;92823.47;5110689;28;20412;-85
2021/08/17 10:10:53;;;;;;;14.90;6.45;;;;;;;37.30;22.45;92785.66;5110191;28;20051;-85
2021/08/17 10:13:21;;;;;;;11.00;5.82;;;;;;;37.68;22.38;92823.31;5110167;28;20055;-83
2021/08/17 10:15:51;;;;;;;17.63;5.78;;;;;;;37.78;22.50;92823.66;5110633;28;20047;-86
2021/08/17 10:18:25;;;;;;;11.35;5.28;;;;;;;37.78;22.30;92815.59;5110385;28;20050;-85
2021/08/17 10:20:54;;;;;;;9.05;5.72;;;;;;;37.95;21.61;92812.03;5110268;28;20055;-85
2021/08/17 10:23:23;;;;;;;7.60;5.82;;;;;;;37.48;21.37;92764.09;5110305;28;20055;-86
2021/08/17 10:25:52;;;;;;;7.93;7.00;;;;;;;37.72;21.53;92815.28;5110438;28;20429;-87
2021/08/17 10:28:34;;;;;;;12.10;6.60;;;;;;;37.51;21.47;92774.03;5110380;28;20048;-86
2021/08/17 10:31:28;;;;;;;19.02;7.60;;;;;;;37.77;21.56;92801.47;5108273;28;20047;-86
2021/08/17 10:34:07;;;;;;;23.10;7.97;;;;;;;38.03;21.47;92807.38;5110319;28;20048;-87
2021/08/17 10:36:35;;;;;;;10.55;7.15;;;;;;;37.59;21.01;92808.81;5098111;28;20048;-88
2021/08/17 10:39:05;;;;;;;11.68;9.05;;;;;;;37.60;20.69;92808.44;5094116;28;20052;-87
2021/08/17 10:41:38;;;;;;;13.73;9.18;;;;;;;37.49;21.00;92805.81;5090095;28;20130;-88
2021/08/17 10:44:11;;;;;;;14.70;10.48;;;;;;;36.07;21.04;92731.34;5089499;28;20139;-87
2021/08/17 10:47:01;;;;;;;10.05;8.63;;;;;;;35.54;23.27;92818.34;5089469;28;20397;-88
2021/08/17 10:49:32;;;;;;;13.10;10.30;;;;;;;35.90;22.21;92769.53;5089531;28;20048;-88
2021/08/17 10:52:00;;;;;;;20.52;9.52;;;;;;;35.79;22.69;92750.81;5089279;28;20055;-87
2021/08/17 10:54:27;;;;;;;14.52;8.50;;;;;;;36.24;22.36;92803.91;5089425;28;20058;-89
2021/08/17 10:56:55;;;;;;;15.18;10.65;;;;;;;36.14;21.57;92746.63;5089478;28;20062;-88
2021/08/17 10:59:41;;;;;;;14.65;8.93;;;;;;;35.34;22.90;92746.56;5089497;28;20374;-87
2021/08/17 11:02:10;;;;;;;17.40;9.45;;;;;;;35.43;23.10;92751.53;5089151;28;20338;-87
2021/08/17 11:04:39;;;;;;;12.02;9.25;;;;;;;34.39;24.15;92743.53;5088725;28;20052;-87
2021/08/17 11:07:32;;;;;;;16.98;10.52;;;;;;;35.08;23.61;92740.38;5089433;28;20052;-86
2021/08/17 11:10:01;;;;;;;18.52;12.07;;;;;;;35.55;22.64;92707.69;5083837;28;20478;-86
2021/08/17 11:12:33;;;;;;;16.75;10.77;;;;;;;36.14;22.86;92741.28;5088984;28;20101;-84
2021/08/17 11:15:00;;;;;;;23.77;11.10;;;;;;;36.92;21.96;92764.00;5089199;28;20051;-86
2021/08/17 11:17:29;;;;;;;17.90;10.55;;;;;;;37.36;21.96;92765.34;5089429;28;20058;-87
2021/08/17 11:19:57;;;;;;;20.75;11.25;;;;;;;37.41;21.21;92708.69;5088656;28;20496;-87
2021/08/17 11:22:26;;;;;;;17.30;10.70;;;;;;;37.89;20.70;92754.63;5089138;28;20056;-86
2021/08/17 11:24:54;;;;;;;18.25;10.27;;;;;;;38.38;20.95;92753.06;5088594;28;20135;-87
2021/08/17 11:27:38;;;;;;;14.15;10.75;;;;;;;38.33;20.44;92717.50;5089869;28;20480;-86
2021/08/17 11:30:09;;;;;;;16.90;9.68;;;;;;;38.59;20.49;92757.47;5089244;28;20052;-86
2021/08/17 11:32:40;;;;;;;12.65;10.13;;;;;;;38.51;19.94;92719.22;5089505;28;20055;-86
2021/08/17 11:35:08;;;;;;;20.00;10.52;;;;;;;38.75;20.22;92733.53;5089323;28;20046;-86